sensor_id;sensor_type;location;lat;lon;timestamp;temperature;humidity
30244;DHT22;64022;53.652;9.792;2024-03-08T00:00:05;21.30;51.10
30244;DHT22;64022;53.652;9.792;2024-03-08T00:02:35;21.30;51.00
30244;DHT22;64022;53.652;9.792;2024-03-08T00:05:03;21.40;51.10
30244;DHT22;64022;53.652;9.792;2024-03-08T00:07:29;21.30;51.00
30244;DHT22;64022;53.652;9.792;2024-03-08T00:09:54;21.40;51.10
30244;DHT22;64022;53.652;9.792;2024-03-08T00:12:21;21.30;51.10
30244;DHT22;64022;53.652;9.792;2024-03-08T00:14:46;21.40;51.10
30244;DHT22;64022;53.652;9.792;2024-03-08T00:17:12;21.40;51.10
30244;DHT22;64022;53.652;9.792;2024-03-08T00:19:38;21.40;51.10
30244;DHT22;64022;53.652;9.792;2024-03-08T00:22:04;21.40;51.20
30244;DHT22;64022;53.652;9.792;2024-03-08T00:24:30;21.40;51.10
30244;DHT22;64022;53.652;9.792;2024-03-08T00:26:56;21.40;51.20
30244;DHT22;64022;53.652;9.792;2024-03-08T00:29:22;21.40;51.20
30244;DHT22;64022;53.652;9.792;2024-03-08T00:31:47;21.40;51.10
30244;DHT22;64022;53.652;9.792;2024-03-08T00:34:14;21.40;51.10
30244;DHT22;64022;53.652;9.792;2024-03-08T00:36:40;21.40;51.20
30244;DHT22;64022;53.652;9.792;2024-03-08T00:39:06;21.40;51.20
30244;DHT22;64022;53.652;9.792;2024-03-08T00:41:32;21.40;51.20
30244;DHT22;64022;53.652;9.792;2024-03-08T00:43:58;21.40;51.20
30244;DHT22;64022;53.652;9.792;2024-03-08T00:46:33;21.40;51.20
30244;DHT22;64022;53.652;9.792;2024-03-08T00:48:59;21.40;51.20
30244;DHT22;64022;53.652;9.792;2024-03-08T00:51:24;21.40;51.20
30244;DHT22;64022;53.652;9.792;2024-03-08T00:53:51;21.40;51.20
30244;DHT22;64022;53.652;9.792;2024-03-08T00:56:18;21.40;51.20
30244;DHT22;64022;53.652;9.792;2024-03-08T00:58:44;21.40;51.20
30244;DHT22;64022;53.652;9.792;2024-03-08T01:01:09;21.40;51.20
30244;DHT22;64022;53.652;9.792;2024-03-08T01:03:38;21.40;51.20
30244;DHT22;64022;53.652;9.792;2024-03-08T01:06:06;21.40;51.20
30244;DHT22;64022;53.652;9.792;2024-03-08T01:08:31;21.40;51.20
30244;DHT22;64022;53.652;9.792;2024-03-08T01:10:57;21.40;51.20
30244;DHT22;64022;53.652;9.792;2024-03-08T01:13:23;21.40;51.20
30244;DHT22;64022;53.652;9.792;2024-03-08T01:15:49;21.40;51.20
30244;DHT22;64022;53.652;9.792;2024-03-08T01:18:15;21.40;51.20
30244;DHT22;64022;53.652;9.792;2024-03-08T01:20:41;21.40;51.20
30244;DHT22;64022;53.652;9.792;2024-03-08T01:23:06;21.40;51.20
30244;DHT22;64022;53.652;9.792;2024-03-08T01:25:33;21.40;51.20
30244;DHT22;64022;53.652;9.792;2024-03-08T01:28:02;21.40;51.20
30244;DHT22;64022;53.652;9.792;2024-03-08T01:30:28;21.40;51.20
30244;DHT22;64022;53.652;9.792;2024-03-08T01:32:54;21.40;51.20
30244;DHT22;64022;53.652;9.792;2024-03-08T01:35:19;21.40;51.20
30244;DHT22;64022;53.652;9.792;2024-03-08T01:37:47;21.40;51.20
30244;DHT22;64022;53.652;9.792;2024-03-08T01:40:15;21.40;51.20
30244;DHT22;64022;53.652;9.792;2024-03-08T01:42:42;21.40;51.20
30244;DHT22;64022;53.652;9.792;2024-03-08T01:45:08;21.40;51.20
30244;DHT22;64022;53.652;9.792;2024-03-08T01:47:35;21.40;51.20
30244;DHT22;64022;53.652;9.792;2024-03-08T01:50:01;21.40;51.20
30244;DHT22;64022;53.652;9.792;2024-03-08T01:52:28;21.40;51.20
30244;DHT22;64022;53.652;9.792;2024-03-08T01:54:57;21.40;51.20
30244;DHT22;64022;53.652;9.792;2024-03-08T01:57:26;21.40;51.20
30244;DHT22;64022;53.652;9.792;2024-03-08T01:59:53;21.40;51.20
30244;DHT22;64022;53.652;9.792;2024-03-08T02:02:21;21.40;51.20
30244;DHT22;64022;53.652;9.792;2024-03-08T02:04:47;21.40;51.20
30244;DHT22;64022;53.652;9.792;2024-03-08T02:07:13;21.40;51.20
30244;DHT22;64022;53.652;9.792;2024-03-08T02:09:39;21.40;51.20
30244;DHT22;64022;53.652;9.792;2024-03-08T02:12:05;21.40;51.20
30244;DHT22;64022;53.652;9.792;2024-03-08T02:14:30;21.40;51.20
30244;DHT22;64022;53.652;9.792;2024-03-08T02:17:00;21.40;51.20
30244;DHT22;64022;53.652;9.792;2024-03-08T02:19:26;21.40;51.20
30244;DHT22;64022;53.652;9.792;2024-03-08T02:21:52;21.40;51.20
30244;DHT22;64022;53.652;9.792;2024-03-08T02:24:19;21.40;51.20
30244;DHT22;64022;53.652;9.792;2024-03-08T02:26:45;21.40;51.20
30244;DHT22;64022;53.652;9.792;2024-03-08T02:29:10;21.40;51.20
30244;DHT22;64022;53.652;9.792;2024-03-08T02:31:43;21.40;51.20
30244;DHT22;64022;53.652;9.792;2024-03-08T02:34:08;21.40;51.20
30244;DHT22;64022;53.652;9.792;2024-03-08T02:36:35;21.40;51.20
30244;DHT22;64022;53.652;9.792;2024-03-08T02:39:03;21.30;51.10
30244;DHT22;64022;53.652;9.792;2024-03-08T02:41:31;21.40;51.20
30244;DHT22;64022;53.652;9.792;2024-03-08T02:43:56;21.40;51.20
30244;DHT22;64022;53.652;9.792;2024-03-08T02:46:22;21.40;51.20
30244;DHT22;64022;53.652;9.792;2024-03-08T02:48:48;21.40;51.20
30244;DHT22;64022;53.652;9.792;2024-03-08T02:51:14;21.40;51.20
30244;DHT22;64022;53.652;9.792;2024-03-08T02:53:42;21.40;51.20
30244;DHT22;64022;53.652;9.792;2024-03-08T02:56:08;21.40;51.20
30244;DHT22;64022;53.652;9.792;2024-03-08T02:58:38;21.40;51.20
30244;DHT22;64022;53.652;9.792;2024-03-08T03:01:03;21.40;51.20
30244;DHT22;64022;53.652;9.792;2024-03-08T03:03:30;21.40;51.20
30244;DHT22;64022;53.652;9.792;2024-03-08T03:05:55;21.40;51.20
30244;DHT22;64022;53.652;9.792;2024-03-08T03:08:21;21.40;51.20
30244;DHT22;64022;53.652;9.792;2024-03-08T03:10:47;21.40;51.20
30244;DHT22;64022;53.652;9.792;2024-03-08T03:13:15;21.40;51.20
30244;DHT22;64022;53.652;9.792;2024-03-08T03:15:42;21.40;51.20
30244;DHT22;64022;53.652;9.792;2024-03-08T03:18:07;21.40;51.20
30244;DHT22;64022;53.652;9.792;2024-03-08T03:20:33;21.40;51.20
30244;DHT22;64022;53.652;9.792;2024-03-08T03:23:02;21.40;51.20
30244;DHT22;64022;53.652;9.792;2024-03-08T03:25:29;21.40;51.20
30244;DHT22;64022;53.652;9.792;2024-03-08T03:27:59;21.40;51.20
30244;DHT22;64022;53.652;9.792;2024-03-08T03:30:25;21.40;51.20
30244;DHT22;64022;53.652;9.792;2024-03-08T03:32:53;21.40;51.20
30244;DHT22;64022;53.652;9.792;2024-03-08T03:35:21;21.40;51.20
30244;DHT22;64022;53.652;9.792;2024-03-08T03:37:49;21.40;51.20
30244;DHT22;64022;53.652;9.792;2024-03-08T03:40:31;21.40;51.20
30244;DHT22;64022;53.652;9.792;2024-03-08T03:42:56;21.40;51.20
30244;DHT22;64022;53.652;9.792;2024-03-08T03:45:23;21.40;51.10
30244;DHT22;64022;53.652;9.792;2024-03-08T03:47:48;21.50;51.20
30244;DHT22;64022;53.652;9.792;2024-03-08T03:50:14;21.40;51.10
30244;DHT22;64022;53.652;9.792;2024-03-08T03:52:42;21.40;51.10
30244;DHT22;64022;53.652;9.792;2024-03-08T03:55:08;21.40;51.10
30244;DHT22;64022;53.652;9.792;2024-03-08T03:57:34;21.40;51.10
30244;DHT22;64022;53.652;9.792;2024-03-08T03:59:59;21.40;51.10
30244;DHT22;64022;53.652;9.792;2024-03-08T04:02:25;21.40;51.10
30244;DHT22;64022;53.652;9.792;2024-03-08T04:04:52;21.40;51.10
30244;DHT22;64022;53.652;9.792;2024-03-08T04:07:20;21.40;51.10
30244;DHT22;64022;53.652;9.792;2024-03-08T04:09:47;21.40;51.10
30244;DHT22;64022;53.652;9.792;2024-03-08T04:12:13;21.40;51.10
30244;DHT22;64022;53.652;9.792;2024-03-08T04:14:41;21.40;51.00
30244;DHT22;64022;53.652;9.792;2024-03-08T04:17:07;21.40;51.00
30244;DHT22;64022;53.652;9.792;2024-03-08T04:19:34;21.40;51.00
30244;DHT22;64022;53.652;9.792;2024-03-08T04:22:01;21.40;51.00
30244;DHT22;64022;53.652;9.792;2024-03-08T04:24:27;21.40;51.00
30244;DHT22;64022;53.652;9.792;2024-03-08T04:26:53;21.40;51.00
30244;DHT22;64022;53.652;9.792;2024-03-08T04:29:20;21.40;51.00
30244;DHT22;64022;53.652;9.792;2024-03-08T04:31:49;21.40;51.00
30244;DHT22;64022;53.652;9.792;2024-03-08T04:34:14;21.40;51.00
30244;DHT22;64022;53.652;9.792;2024-03-08T04:36:40;21.40;51.00
30244;DHT22;64022;53.652;9.792;2024-03-08T04:39:07;21.40;51.00
30244;DHT22;64022;53.652;9.792;2024-03-08T04:41:39;21.40;51.00
30244;DHT22;64022;53.652;9.792;2024-03-08T04:44:05;21.40;51.00
30244;DHT22;64022;53.652;9.792;2024-03-08T04:46:30;21.40;50.70
30244;DHT22;64022;53.652;9.792;2024-03-08T04:48:56;21.40;50.80
30244;DHT22;64022;53.652;9.792;2024-03-08T04:51:25;21.40;50.80
30244;DHT22;64022;53.652;9.792;2024-03-08T04:53:51;21.40;50.80
30244;DHT22;64022;53.652;9.792;2024-03-08T04:56:16;21.40;50.80
30244;DHT22;64022;53.652;9.792;2024-03-08T04:58:44;21.40;50.80
30244;DHT22;64022;53.652;9.792;2024-03-08T05:01:13;21.40;50.80
30244;DHT22;64022;53.652;9.792;2024-03-08T05:03:39;21.40;50.80
30244;DHT22;64022;53.652;9.792;2024-03-08T05:06:05;21.40;50.80
30244;DHT22;64022;53.652;9.792;2024-03-08T05:08:31;21.40;50.80
30244;DHT22;64022;53.652;9.792;2024-03-08T05:10:58;21.40;50.80
30244;DHT22;64022;53.652;9.792;2024-03-08T05:13:23;21.40;50.70
30244;DHT22;64022;53.652;9.792;2024-03-08T05:15:49;21.40;50.70
30244;DHT22;64022;53.652;9.792;2024-03-08T05:18:16;21.40;50.70
30244;DHT22;64022;53.652;9.792;2024-03-08T05:20:41;21.40;50.70
30244;DHT22;64022;53.652;9.792;2024-03-08T05:23:07;21.40;50.70
30244;DHT22;64022;53.652;9.792;2024-03-08T05:25:33;21.40;50.70
30244;DHT22;64022;53.652;9.792;2024-03-08T05:27:59;21.40;50.70
30244;DHT22;64022;53.652;9.792;2024-03-08T05:30:25;21.40;50.70
30244;DHT22;64022;53.652;9.792;2024-03-08T05:32:52;21.40;50.70
30244;DHT22;64022;53.652;9.792;2024-03-08T05:35:18;21.40;50.70
30244;DHT22;64022;53.652;9.792;2024-03-08T05:37:45;21.40;50.70
30244;DHT22;64022;53.652;9.792;2024-03-08T05:40:12;21.40;50.70
30244;DHT22;64022;53.652;9.792;2024-03-08T05:42:39;21.40;50.70
30244;DHT22;64022;53.652;9.792;2024-03-08T05:45:05;21.40;50.70
30244;DHT22;64022;53.652;9.792;2024-03-08T05:47:35;21.40;50.70
30244;DHT22;64022;53.652;9.792;2024-03-08T05:50:00;21.40;50.70
30244;DHT22;64022;53.652;9.792;2024-03-08T05:52:27;21.40;50.70
30244;DHT22;64022;53.652;9.792;2024-03-08T05:54:54;21.40;50.70
30244;DHT22;64022;53.652;9.792;2024-03-08T05:57:19;21.30;45.10
30244;DHT22;64022;53.652;9.792;2024-03-08T05:59:45;20.80;42.60
30244;DHT22;64022;53.652;9.792;2024-03-08T06:02:11;20.40;43.60
30244;DHT22;64022;53.652;9.792;2024-03-08T06:04:38;20.30;44.60
30244;DHT22;64022;53.652;9.792;2024-03-08T06:07:04;20.30;45.30
30244;DHT22;64022;53.652;9.792;2024-03-08T06:09:29;20.40;45.70
30244;DHT22;64022;53.652;9.792;2024-03-08T06:11:55;20.40;46.00
30244;DHT22;64022;53.652;9.792;2024-03-08T06:14:22;20.40;46.10
30244;DHT22;64022;53.652;9.792;2024-03-08T06:16:49;20.50;46.40
30244;DHT22;64022;53.652;9.792;2024-03-08T06:19:20;20.60;46.50
30244;DHT22;64022;53.652;9.792;2024-03-08T06:21:45;20.60;46.60
30244;DHT22;64022;53.652;9.792;2024-03-08T06:24:11;20.70;46.70
30244;DHT22;64022;53.652;9.792;2024-03-08T06:26:37;20.70;46.80
30244;DHT22;64022;53.652;9.792;2024-03-08T06:29:04;20.80;46.90
30244;DHT22;64022;53.652;9.792;2024-03-08T06:31:32;20.80;46.90
30244;DHT22;64022;53.652;9.792;2024-03-08T06:33:57;20.80;47.00
30244;DHT22;64022;53.652;9.792;2024-03-08T06:36:23;20.90;47.10
30244;DHT22;64022;53.652;9.792;2024-03-08T06:38:49;20.90;47.10
30244;DHT22;64022;53.652;9.792;2024-03-08T06:41:15;20.90;47.20
30244;DHT22;64022;53.652;9.792;2024-03-08T06:43:44;21.00;47.30
30244;DHT22;64022;53.652;9.792;2024-03-08T06:46:11;21.00;47.30
30244;DHT22;64022;53.652;9.792;2024-03-08T06:48:40;21.00;47.30
30244;DHT22;64022;53.652;9.792;2024-03-08T06:51:05;21.00;47.30
30244;DHT22;64022;53.652;9.792;2024-03-08T06:53:31;21.10;47.40
30244;DHT22;64022;53.652;9.792;2024-03-08T06:55:57;21.10;47.40
30244;DHT22;64022;53.652;9.792;2024-03-08T06:58:23;21.10;47.50
30244;DHT22;64022;53.652;9.792;2024-03-08T07:00:49;21.10;47.50
30244;DHT22;64022;53.652;9.792;2024-03-08T07:03:18;21.10;47.50
30244;DHT22;64022;53.652;9.792;2024-03-08T07:05:44;21.20;47.60
30244;DHT22;64022;53.652;9.792;2024-03-08T07:08:10;21.20;47.60
30244;DHT22;64022;53.652;9.792;2024-03-08T07:10:37;21.20;47.60
30244;DHT22;64022;53.652;9.792;2024-03-08T07:13:03;21.20;47.60
30244;DHT22;64022;53.652;9.792;2024-03-08T07:15:29;21.30;47.70
30244;DHT22;64022;53.652;9.792;2024-03-08T07:17:54;21.30;47.70
30244;DHT22;64022;53.652;9.792;2024-03-08T07:20:20;21.30;47.60
30244;DHT22;64022;53.652;9.792;2024-03-08T07:22:47;21.30;47.60
30244;DHT22;64022;53.652;9.792;2024-03-08T07:25:13;21.30;47.60
30244;DHT22;64022;53.652;9.792;2024-03-08T07:27:55;21.30;47.70
30244;DHT22;64022;53.652;9.792;2024-03-08T07:30:24;21.30;47.70
30244;DHT22;64022;53.652;9.792;2024-03-08T07:33:09;21.30;47.70
30244;DHT22;64022;53.652;9.792;2024-03-08T07:35:37;21.40;47.80
30244;DHT22;64022;53.652;9.792;2024-03-08T07:38:08;21.40;47.80
30244;DHT22;64022;53.652;9.792;2024-03-08T07:40:45;21.40;47.80
30244;DHT22;64022;53.652;9.792;2024-03-08T07:43:12;21.40;47.90
30244;DHT22;64022;53.652;9.792;2024-03-08T07:45:38;21.40;48.00
30244;DHT22;64022;53.652;9.792;2024-03-08T07:48:04;21.40;47.90
30244;DHT22;64022;53.652;9.792;2024-03-08T07:50:36;21.50;48.00
30244;DHT22;64022;53.652;9.792;2024-03-08T07:53:02;21.50;48.00
30244;DHT22;64022;53.652;9.792;2024-03-08T07:55:29;21.50;48.00
30244;DHT22;64022;53.652;9.792;2024-03-08T07:57:56;21.50;48.60
30244;DHT22;64022;53.652;9.792;2024-03-08T08:00:22;21.50;48.10
30244;DHT22;64022;53.652;9.792;2024-03-08T08:02:49;21.60;48.10
30244;DHT22;64022;53.652;9.792;2024-03-08T08:05:15;21.60;48.10
30244;DHT22;64022;53.652;9.792;2024-03-08T08:07:45;21.60;48.10
30244;DHT22;64022;53.652;9.792;2024-03-08T08:10:12;21.60;48.10
30244;DHT22;64022;53.652;9.792;2024-03-08T08:12:47;21.60;48.10
30244;DHT22;64022;53.652;9.792;2024-03-08T08:15:14;21.60;48.20
30244;DHT22;64022;53.652;9.792;2024-03-08T08:17:42;21.70;48.30
30244;DHT22;64022;53.652;9.792;2024-03-08T08:20:09;21.70;48.30
30244;DHT22;64022;53.652;9.792;2024-03-08T08:22:35;21.70;48.30
30244;DHT22;64022;53.652;9.792;2024-03-08T08:25:01;21.70;47.40
30244;DHT22;64022;53.652;9.792;2024-03-08T08:27:27;21.40;44.20
30244;DHT22;64022;53.652;9.792;2024-03-08T08:29:53;21.10;41.40
30244;DHT22;64022;53.652;9.792;2024-03-08T08:32:19;20.70;39.90
30244;DHT22;64022;53.652;9.792;2024-03-08T08:34:45;20.40;39.10
30244;DHT22;64022;53.652;9.792;2024-03-08T08:37:12;20.10;38.00
30244;DHT22;64022;53.652;9.792;2024-03-08T08:39:38;19.80;37.10
30244;DHT22;64022;53.652;9.792;2024-03-08T08:42:03;19.60;38.30
30244;DHT22;64022;53.652;9.792;2024-03-08T08:44:29;19.60;39.30
30244;DHT22;64022;53.652;9.792;2024-03-08T08:46:57;19.60;40.00
30244;DHT22;64022;53.652;9.792;2024-03-08T08:49:22;19.80;40.50
30244;DHT22;64022;53.652;9.792;2024-03-08T08:51:50;19.90;40.90
30244;DHT22;64022;53.652;9.792;2024-03-08T08:54:17;20.00;41.20
30244;DHT22;64022;53.652;9.792;2024-03-08T08:56:43;20.00;41.40
30244;DHT22;64022;53.652;9.792;2024-03-08T08:59:13;20.10;41.60
30244;DHT22;64022;53.652;9.792;2024-03-08T09:01:39;20.20;41.80
30244;DHT22;64022;53.652;9.792;2024-03-08T09:04:05;20.30;42.00
30244;DHT22;64022;53.652;9.792;2024-03-08T09:06:31;20.30;42.10
30244;DHT22;64022;53.652;9.792;2024-03-08T09:08:57;20.40;42.30
30244;DHT22;64022;53.652;9.792;2024-03-08T09:11:23;20.40;42.40
30244;DHT22;64022;53.652;9.792;2024-03-08T09:13:50;20.50;42.60
30244;DHT22;64022;53.652;9.792;2024-03-08T09:16:16;20.50;42.70
30244;DHT22;64022;53.652;9.792;2024-03-08T09:18:42;20.60;42.80
30244;DHT22;64022;53.652;9.792;2024-03-08T09:21:08;20.60;42.90
30244;DHT22;64022;53.652;9.792;2024-03-08T09:23:35;20.70;43.00
30244;DHT22;64022;53.652;9.792;2024-03-08T09:26:01;20.60;43.10
30244;DHT22;64022;53.652;9.792;2024-03-08T09:28:29;20.70;43.20
30244;DHT22;64022;53.652;9.792;2024-03-08T09:30:55;20.70;43.30
30244;DHT22;64022;53.652;9.792;2024-03-08T09:33:21;20.70;43.40
30244;DHT22;64022;53.652;9.792;2024-03-08T09:35:47;20.80;43.50
30244;DHT22;64022;53.652;9.792;2024-03-08T09:38:15;20.80;43.60
30244;DHT22;64022;53.652;9.792;2024-03-08T09:40:41;20.80;43.60
30244;DHT22;64022;53.652;9.792;2024-03-08T09:43:08;20.80;43.70
30244;DHT22;64022;53.652;9.792;2024-03-08T09:45:35;20.80;43.80
30244;DHT22;64022;53.652;9.792;2024-03-08T09:48:01;20.80;43.80
30244;DHT22;64022;53.652;9.792;2024-03-08T09:50:28;20.90;43.90
30244;DHT22;64022;53.652;9.792;2024-03-08T09:52:54;20.90;44.00
30244;DHT22;64022;53.652;9.792;2024-03-08T09:55:22;20.90;44.10
30244;DHT22;64022;53.652;9.792;2024-03-08T09:57:48;20.90;44.10
30244;DHT22;64022;53.652;9.792;2024-03-08T10:00:33;20.90;44.20
30244;DHT22;64022;53.652;9.792;2024-03-08T10:03:01;20.90;44.20
30244;DHT22;64022;53.652;9.792;2024-03-08T10:05:28;21.00;44.40
30244;DHT22;64022;53.652;9.792;2024-03-08T10:07:55;21.00;44.40
30244;DHT22;64022;53.652;9.792;2024-03-08T10:10:21;21.00;44.50
30244;DHT22;64022;53.652;9.792;2024-03-08T10:12:48;21.00;44.50
30244;DHT22;64022;53.652;9.792;2024-03-08T10:15:15;21.00;44.60
30244;DHT22;64022;53.652;9.792;2024-03-08T10:17:42;21.00;44.70
30244;DHT22;64022;53.652;9.792;2024-03-08T10:20:15;21.00;44.70
30244;DHT22;64022;53.652;9.792;2024-03-08T10:22:42;21.00;44.70
30244;DHT22;64022;53.652;9.792;2024-03-08T10:25:12;21.00;44.70
30244;DHT22;64022;53.652;9.792;2024-03-08T10:27:39;21.00;44.80
30244;DHT22;64022;53.652;9.792;2024-03-08T10:30:08;21.00;44.90
30244;DHT22;64022;53.652;9.792;2024-03-08T10:32:36;21.00;44.90
30244;DHT22;64022;53.652;9.792;2024-03-08T10:35:02;21.10;45.00
30244;DHT22;64022;53.652;9.792;2024-03-08T10:37:28;21.00;45.00
30244;DHT22;64022;53.652;9.792;2024-03-08T10:40:02;21.00;45.10
30244;DHT22;64022;53.652;9.792;2024-03-08T10:42:40;21.00;45.10
30244;DHT22;64022;53.652;9.792;2024-03-08T10:45:11;21.10;45.20
30244;DHT22;64022;53.652;9.792;2024-03-08T10:47:40;21.10;45.30
30244;DHT22;64022;53.652;9.792;2024-03-08T10:50:19;21.10;45.30
30244;DHT22;64022;53.652;9.792;2024-03-08T10:52:49;21.10;45.40
30244;DHT22;64022;53.652;9.792;2024-03-08T10:55:15;21.10;45.50
30244;DHT22;64022;53.652;9.792;2024-03-08T10:57:41;21.10;45.50
30244;DHT22;64022;53.652;9.792;2024-03-08T11:00:07;21.10;45.50
30244;DHT22;64022;53.652;9.792;2024-03-08T11:02:38;21.10;45.70
30244;DHT22;64022;53.652;9.792;2024-03-08T11:05:04;21.10;45.60
30244;DHT22;64022;53.652;9.792;2024-03-08T11:07:34;21.10;45.70
30244;DHT22;64022;53.652;9.792;2024-03-08T11:10:03;21.10;45.70
30244;DHT22;64022;53.652;9.792;2024-03-08T11:12:38;21.10;45.80
30244;DHT22;64022;53.652;9.792;2024-03-08T11:15:11;21.10;45.90
30244;DHT22;64022;53.652;9.792;2024-03-08T11:20:11;21.10;46.00
30244;DHT22;64022;53.652;9.792;2024-03-08T11:25:39;21.10;46.10
30244;DHT22;64022;53.652;9.792;2024-03-08T11:28:11;21.10;46.10
30244;DHT22;64022;53.652;9.792;2024-03-08T11:30:44;21.00;46.10
30244;DHT22;64022;53.652;9.792;2024-03-08T11:33:16;21.00;46.20
30244;DHT22;64022;53.652;9.792;2024-03-08T11:35:44;21.10;46.30
30244;DHT22;64022;53.652;9.792;2024-03-08T11:38:12;21.10;46.30
30244;DHT22;64022;53.652;9.792;2024-03-08T11:40:38;21.10;46.40
30244;DHT22;64022;53.652;9.792;2024-03-08T11:43:05;21.10;46.50
30244;DHT22;64022;53.652;9.792;2024-03-08T11:45:34;21.00;46.40
30244;DHT22;64022;53.652;9.792;2024-03-08T11:48:04;21.10;46.50
30244;DHT22;64022;53.652;9.792;2024-03-08T11:50:30;21.10;46.60
30244;DHT22;64022;53.652;9.792;2024-03-08T11:53:01;21.10;46.70
30244;DHT22;64022;53.652;9.792;2024-03-08T11:55:29;21.00;46.70
30244;DHT22;64022;53.652;9.792;2024-03-08T11:58:01;21.10;46.80
30244;DHT22;64022;53.652;9.792;2024-03-08T12:00:26;21.10;46.80
30244;DHT22;64022;53.652;9.792;2024-03-08T12:03:01;21.10;46.80
30244;DHT22;64022;53.652;9.792;2024-03-08T12:05:28;21.10;46.90
30244;DHT22;64022;53.652;9.792;2024-03-08T12:07:56;21.10;47.00
30244;DHT22;64022;53.652;9.792;2024-03-08T12:10:22;21.00;46.90
30244;DHT22;64022;53.652;9.792;2024-03-08T12:12:48;21.10;47.00
30244;DHT22;64022;53.652;9.792;2024-03-08T12:15:15;21.10;47.10
30244;DHT22;64022;53.652;9.792;2024-03-08T12:17:41;21.00;47.10
30244;DHT22;64022;53.652;9.792;2024-03-08T12:20:11;21.10;47.20
30244;DHT22;64022;53.652;9.792;2024-03-08T12:22:41;21.10;47.30
30244;DHT22;64022;53.652;9.792;2024-03-08T12:25:06;21.10;47.30
30244;DHT22;64022;53.652;9.792;2024-03-08T12:27:36;21.10;47.40
30244;DHT22;64022;53.652;9.792;2024-03-08T12:30:16;21.00;47.40
30244;DHT22;64022;53.652;9.792;2024-03-08T12:32:46;21.00;47.40
30244;DHT22;64022;53.652;9.792;2024-03-08T12:35:12;21.10;47.50
30244;DHT22;64022;53.652;9.792;2024-03-08T12:37:39;21.10;47.60
30244;DHT22;64022;53.652;9.792;2024-03-08T12:40:08;21.10;47.60
30244;DHT22;64022;53.652;9.792;2024-03-08T12:42:34;21.10;47.70
30244;DHT22;64022;53.652;9.792;2024-03-08T12:45:00;21.10;47.70
30244;DHT22;64022;53.652;9.792;2024-03-08T12:47:28;21.10;47.80
30244;DHT22;64022;53.652;9.792;2024-03-08T12:49:54;21.10;47.80
30244;DHT22;64022;53.652;9.792;2024-03-08T12:52:20;21.00;47.80
30244;DHT22;64022;53.652;9.792;2024-03-08T12:54:46;21.10;47.90
30244;DHT22;64022;53.652;9.792;2024-03-08T12:57:13;21.10;47.90
30244;DHT22;64022;53.652;9.792;2024-03-08T12:59:39;21.00;48.00
30244;DHT22;64022;53.652;9.792;2024-03-08T13:02:08;21.10;48.00
30244;DHT22;64022;53.652;9.792;2024-03-08T13:04:36;21.10;48.10
30244;DHT22;64022;53.652;9.792;2024-03-08T13:07:02;21.10;48.10
30244;DHT22;64022;53.652;9.792;2024-03-08T13:09:28;21.10;48.10
30244;DHT22;64022;53.652;9.792;2024-03-08T13:11:54;21.00;48.10
30244;DHT22;64022;53.652;9.792;2024-03-08T13:14:21;21.10;48.20
30244;DHT22;64022;53.652;9.792;2024-03-08T13:16:47;21.00;48.20
30244;DHT22;64022;53.652;9.792;2024-03-08T13:19:15;21.00;48.20
30244;DHT22;64022;53.652;9.792;2024-03-08T13:21:41;21.00;48.30
30244;DHT22;64022;53.652;9.792;2024-03-08T13:24:07;21.00;48.30
30244;DHT22;64022;53.652;9.792;2024-03-08T13:26:33;21.00;48.30
30244;DHT22;64022;53.652;9.792;2024-03-08T13:28:59;21.00;48.40
30244;DHT22;64022;53.652;9.792;2024-03-08T13:31:25;21.00;48.40
30244;DHT22;64022;53.652;9.792;2024-03-08T13:33:50;21.00;48.50
30244;DHT22;64022;53.652;9.792;2024-03-08T13:36:23;21.00;48.50
30244;DHT22;64022;53.652;9.792;2024-03-08T13:38:55;21.00;48.50
30244;DHT22;64022;53.652;9.792;2024-03-08T13:41:24;21.00;48.60
30244;DHT22;64022;53.652;9.792;2024-03-08T13:43:50;21.00;48.60
30244;DHT22;64022;53.652;9.792;2024-03-08T13:46:15;21.00;48.60
30244;DHT22;64022;53.652;9.792;2024-03-08T13:48:42;21.00;48.70
30244;DHT22;64022;53.652;9.792;2024-03-08T13:51:09;21.00;48.70
30244;DHT22;64022;53.652;9.792;2024-03-08T13:53:40;21.00;48.80
30244;DHT22;64022;53.652;9.792;2024-03-08T13:56:06;21.10;48.80
30244;DHT22;64022;53.652;9.792;2024-03-08T13:58:31;21.00;48.80
30244;DHT22;64022;53.652;9.792;2024-03-08T14:00:58;21.10;48.90
30244;DHT22;64022;53.652;9.792;2024-03-08T14:03:26;21.00;48.90
30244;DHT22;64022;53.652;9.792;2024-03-08T14:05:52;21.00;48.90
30244;DHT22;64022;53.652;9.792;2024-03-08T14:08:20;21.00;49.00
30244;DHT22;64022;53.652;9.792;2024-03-08T14:10:47;21.00;49.00
30244;DHT22;64022;53.652;9.792;2024-03-08T14:13:14;21.00;49.00
30244;DHT22;64022;53.652;9.792;2024-03-08T14:15:44;21.00;48.80
30244;DHT22;64022;53.652;9.792;2024-03-08T14:18:11;21.00;48.50
30244;DHT22;64022;53.652;9.792;2024-03-08T14:20:44;20.90;47.90
30244;DHT22;64022;53.652;9.792;2024-03-08T14:23:10;20.80;47.70
30244;DHT22;64022;53.652;9.792;2024-03-08T14:25:38;20.80;47.60
30244;DHT22;64022;53.652;9.792;2024-03-08T14:28:04;20.70;47.40
30244;DHT22;64022;53.652;9.792;2024-03-08T14:30:33;20.70;47.30
30244;DHT22;64022;53.652;9.792;2024-03-08T14:33:05;20.70;46.60
30244;DHT22;64022;53.652;9.792;2024-03-08T14:35:34;20.60;46.60
30244;DHT22;64022;53.652;9.792;2024-03-08T14:38:00;20.60;46.70
30244;DHT22;64022;53.652;9.792;2024-03-08T14:40:26;20.60;46.80
30244;DHT22;64022;53.652;9.792;2024-03-08T14:42:52;20.60;46.80
30244;DHT22;64022;53.652;9.792;2024-03-08T14:45:18;20.60;46.90
30244;DHT22;64022;53.652;9.792;2024-03-08T14:47:47;20.60;46.90
30244;DHT22;64022;53.652;9.792;2024-03-08T14:50:17;20.70;47.00
30244;DHT22;64022;53.652;9.792;2024-03-08T14:52:43;20.70;47.00
30244;DHT22;64022;53.652;9.792;2024-03-08T14:55:09;20.70;47.00
30244;DHT22;64022;53.652;9.792;2024-03-08T14:57:41;20.70;47.10
30244;DHT22;64022;53.652;9.792;2024-03-08T15:00:07;20.80;47.10
30244;DHT22;64022;53.652;9.792;2024-03-08T15:02:33;20.70;47.10
30244;DHT22;64022;53.652;9.792;2024-03-08T15:05:04;20.80;47.20
30244;DHT22;64022;53.652;9.792;2024-03-08T15:07:34;20.80;47.80
30244;DHT22;64022;53.652;9.792;2024-03-08T15:10:00;20.80;47.30
30244;DHT22;64022;53.652;9.792;2024-03-08T15:12:26;20.80;47.30
30244;DHT22;64022;53.652;9.792;2024-03-08T15:14:52;20.80;47.30
30244;DHT22;64022;53.652;9.792;2024-03-08T15:17:18;20.80;47.40
30244;DHT22;64022;53.652;9.792;2024-03-08T15:19:48;20.80;47.40
30244;DHT22;64022;53.652;9.792;2024-03-08T15:22:15;20.80;47.50
30244;DHT22;64022;53.652;9.792;2024-03-08T15:24:44;20.80;47.50
30244;DHT22;64022;53.652;9.792;2024-03-08T15:27:09;20.90;47.60
30244;DHT22;64022;53.652;9.792;2024-03-08T15:29:35;20.90;47.60
30244;DHT22;64022;53.652;9.792;2024-03-08T15:32:02;20.90;47.60
30244;DHT22;64022;53.652;9.792;2024-03-08T15:34:29;20.90;47.70